Time;durP1;ratioP1;P1;durP2;ratioP2;P2;SDS_P1;SDS_P2;PMS_P1;PMS_P2;Temp;Humidity;BMP_temperature;BMP_pressure;BME280_temperature;BME280_humidity;BME280_pressure;Samples;Min_cycle;Max_cycle;Signal;HPM_P1;HPM_P2
2022/10/02 00:02:04;;;;;;;5.25;3.42;;;;;;;13.44;70.55;98745.38;5072608;28;20520;-57
2022/10/02 00:04:54;;;;;;;4.10;3.47;;;;;;;13.49;71.08;98748.38;5072805;28;20113;-60
2022/10/02 00:07:27;;;;;;;4.72;3.53;;;;;;;13.38;70.91;98756.72;5072131;28;20042;-54
2022/10/02 00:09:58;;;;;;;5.47;3.88;;;;;;;13.38;71.79;98754.03;5073372;28;20032;-55
2022/10/02 00:12:28;;;;;;;5.72;4.72;;;;;;;13.40;71.98;98760.13;5072728;28;20108;-57
2022/10/02 00:15:01;;;;;;;4.95;4.45;;;;;;;13.44;71.90;98760.63;5072746;28;20032;-53
2022/10/02 00:17:36;;;;;;;5.73;4.30;;;;;;;13.47;72.14;98758.47;5073250;28;20025;-55
2022/10/02 00:20:10;;;;;;;6.00;4.35;;;;;;;13.49;72.20;98758.28;5072814;28;20025;-55
2022/10/02 00:22:57;;;;;;;4.30;3.90;;;;;;;13.63;71.53;98760.28;5072858;28;20473;-57
2022/10/02 00:25:23;;;;;;;4.45;4.00;;;;;;;13.56;71.45;98756.63;5072696;28;20047;-55
2022/10/02 00:28:05;;;;;;;6.72;3.75;;;;;;;13.63;71.08;98765.66;5072611;28;20036;-53
2022/10/02 00:30:44;;;;;;;5.07;3.70;;;;;;;13.67;70.87;98759.94;5072791;28;20126;-61
2022/10/02 00:33:41;;;;;;;5.47;4.03;;;;;;;13.74;71.01;98761.78;5072437;28;20036;-54
2022/10/02 00:36:29;;;;;;;3.70;3.40;;;;;;;13.67;70.74;98759.94;5070496;28;20036;-59
2022/10/02 00:39:04;;;;;;;3.88;3.47;;;;;;;13.63;70.90;98754.09;5072202;28;20028;-55
2022/10/02 00:42:04;;;;;;;4.30;3.60;;;;;;;13.66;70.86;98763.66;5073002;28;20062;-55
2022/10/02 00:44:42;;;;;;;4.40;3.47;;;;;;;13.62;70.36;98769.38;5072712;28;20085;-57
2022/10/02 00:47:19;;;;;;;5.78;3.95;;;;;;;13.55;70.18;98762.16;5071891;28;20457;-55
2022/10/02 00:49:57;;;;;;;3.95;3.55;;;;;;;13.56;70.75;98767.38;5072560;28;20048;-55
2022/10/02 00:52:47;;;;;;;4.57;3.70;;;;;;;13.51;70.66;98766.19;5072481;28;20050;-59
2022/10/02 00:55:25;;;;;;;3.58;3.28;;;;;;;13.41;70.61;98756.44;5072241;28;20028;-58
2022/10/02 00:58:08;;;;;;;3.83;3.38;;;;;;;13.43;70.56;98772.41;5071987;28;20127;-57
2022/10/02 01:00:33;;;;;;;4.03;3.47;;;;;;;13.28;70.37;98756.94;5071848;28;20028;-60
2022/10/02 01:03:25;;;;;;;3.90;3.25;;;;;;;13.13;70.84;98737.09;5071223;28;20340;-56
2022/10/02 01:05:50;;;;;;;3.95;3.40;;;;;;;13.03;70.90;98754.22;5071204;28;20111;-58
2022/10/02 01:08:16;;;;;;;3.28;2.97;;;;;;;12.86;71.28;98752.53;5072441;28;20151;-58
2022/10/02 01:10:41;;;;;;;5.35;3.38;;;;;;;12.73;71.70;98763.75;5072161;28;20020;-57
2022/10/02 01:13:07;;;;;;;5.15;3.30;;;;;;;12.60;72.33;98762.34;5071791;28;20025;-56
2022/10/02 01:15:45;;;;;;;3.85;3.00;;;;;;;12.58;72.18;98768.91;5071646;28;20033;-62
2022/10/02 01:18:13;;;;;;;3.30;3.00;;;;;;;12.41;72.58;98770.66;5072533;28;20090;-58
2022/10/02 01:20:56;;;;;;;3.58;3.00;;;;;;;12.41;72.73;98771.53;5071289;28;20379;-55
2022/10/02 01:23:44;;;;;;;4.97;3.03;;;;;;;12.34;73.26;98781.22;5071833;28;20044;-51
2022/10/02 01:26:09;;;;;;;3.20;2.90;;;;;;;12.19;72.72;98768.41;5072551;28;20033;-56
2022/10/02 01:28:35;;;;;;;5.90;2.88;;;;;;;12.20;72.83;98769.25;5072185;28;20093;-59
2022/10/02 01:31:06;;;;;;;4.38;2.90;;;;;;;12.28;72.56;98776.47;5072158;28;20032;-56
2022/10/02 01:33:33;;;;;;;2.80;2.58;;;;;;;12.11;72.58;98754.97;5072136;28;20472;-57
2022/10/02 01:35:59;;;;;;;5.20;3.20;;;;;;;12.25;72.58;98783.03;5072314;28;20036;-55
2022/10/02 01:38:26;;;;;;;3.00;2.67;;;;;;;12.22;72.06;98782.50;5071689;28;20767;-55
2022/10/02 01:40:52;;;;;;;3.58;2.67;;;;;;;12.19;72.21;98784.50;5071914;28;20139;-55
2022/10/02 01:43:32;;;;;;;3.22;2.92;;;;;;;12.32;71.99;98783.25;5071950;28;20582;-56
2022/10/02 01:46:12;;;;;;;2.58;2.33;;;;;;;12.30;71.44;98771.81;5072090;28;20089;-51
2022/10/02 01:48:46;;;;;;;3.10;2.65;;;;;;;12.36;71.35;98771.16;5071512;28;20143;-54
2022/10/02 01:51:23;;;;;;;4.28;2.33;;;;;;;12.42;70.86;98781.25;5071573;28;20091;-57
2022/10/02 01:54:21;;;;;;;2.17;1.98;;;;;;;12.54;70.99;98789.84;5071601;28;20043;-54
2022/10/02 01:57:21;;;;;;;4.28;2.17;;;;;;;12.61;70.19;98792.75;5072155;28;20028;-55
2022/10/02 01:59:50;;;;;;;3.45;2.13;;;;;;;12.56;70.29;98789.72;5069182;28;20131;-56
2022/10/02 02:02:32;;;;;;;3.38;2.28;;;;;;;12.58;70.41;98793.91;5071691;28;20045;-55
2022/10/02 02:05:07;;;;;;;2.53;2.03;;;;;;;12.53;70.31;98788.19;5071923;28;20040;-55
2022/10/02 02:07:45;;;;;;;4.18;2.10;;;;;;;12.55;70.61;98793.41;5072165;28;20029;-55
2022/10/02 02:10:23;;;;;;;2.95;2.05;;;;;;;12.61;70.30;98788.19;5070132;28;20037;-54
2022/10/02 02:12:55;;;;;;;2.22;2.03;;;;;;;12.66;70.36;98789.53;5071650;28;20124;-55
2022/10/02 02:15:52;;;;;;;2.35;2.13;;;;;;;12.73;70.16;98785.22;5071223;28;20033;-52
2022/10/02 02:18:30;;;;;;;3.20;2.30;;;;;;;12.71;69.95;98793.44;5068422;28;20190;-53
2022/10/02 02:21:02;;;;;;;2.72;2.00;;;;;;;12.66;69.84;98781.50;5071076;28;20041;-57
2022/10/02 02:23:31;;;;;;;2.92;1.85;;;;;;;12.62;69.67;98783.69;5051617;28;20064;-53
2022/10/02 02:26:03;;;;;;;4.70;1.83;;;;;;;12.59;69.75;98784.84;5051335;28;20037;-55
2022/10/02 02:28:31;;;;;;;2.42;1.80;;;;;;;12.54;69.31;98775.56;5052860;28;20400;-55
2022/10/02 02:30:58;;;;;;;2.15;1.95;;;;;;;12.50;69.58;98772.41;5055425;28;20394;-54
2022/10/02 02:33:35;;;;;;;4.43;1.80;;;;;;;12.59;69.57;98781.31;5055427;28;20115;-55
2022/10/02 02:36:12;;;;;;;2.22;1.90;;;;;;;12.46;69.31;98761.13;5074797;28;20435;-54
2022/10/02 02:38:47;;;;;;;3.70;1.50;;;;;;;12.70;69.05;98785.56;5075093;28;20024;-56
2022/10/02 02:41:19;;;;;;;1.52;1.20;;;;;;;12.57;69.05;98786.00;5074809;28;20044;-54
2022/10/02 02:44:05;;;;;;;1.77;1.58;;;;;;;12.57;69.28;98791.38;5074434;28;20031;-52
2022/10/02 02:49:49;;;;;;;2.95;1.40;;;;;;;12.57;69.14;98794.06;5074669;28;20427;-57
2022/10/02 02:52:40;;;;;;;1.90;1.40;;;;;;;12.66;69.05;98794.91;5073983;28;20052;-55
2022/10/02 02:55:17;;;;;;;1.98;1.30;;;;;;;12.62;68.74;98783.69;5075183;28;20029;-55
2022/10/02 02:57:50;;;;;;;1.65;1.25;;;;;;;12.57;68.51;98792.22;5074354;28;20032;-57
2022/10/02 03:00:18;;;;;;;1.58;1.20;;;;;;;12.47;68.75;98788.84;5074093;28;20443;-56
2022/10/02 03:02:44;;;;;;;3.35;1.10;;;;;;;12.47;68.47;98796.88;5074684;28;20039;-54
2022/10/02 03:05:15;;;;;;;2.42;1.33;;;;;;;12.48;69.02;98799.38;5074659;28;20032;-60
2022/10/02 03:07:51;;;;;;;1.30;1.20;;;;;;;12.35;68.81;98778.38;5073994;28;20051;-59
2022/10/02 03:10:26;;;;;;;1.42;1.23;;;;;;;12.41;68.58;98784.09;5073993;28;20040;-56
2022/10/02 03:13:01;;;;;;;;;;;;;;;12.71;68.55;98788.06;5074797;28;20027;-55
2022/10/02 03:16:01;;;;;;;3.13;1.08;;;;;;;12.59;68.61;98786.69;5074005;28;19939;-54
2022/10/02 03:19:07;;;;;;;1.80;0.80;;;;;;;12.54;68.46;98786.31;5073502;28;20028;-58
2022/10/02 03:21:38;;;;;;;2.88;1.02;;;;;;;12.46;68.01;98784.47;5058936;28;20053;-55
2022/10/02 03:24:28;;;;;;;1.10;1.00;;;;;;;12.51;68.17;98792.00;5074158;28;20049;-53
2022/10/02 03:27:01;;;;;;;2.80;1.10;;;;;;;12.41;67.38;98798.38;5073699;28;20110;-56
2022/10/02 03:29:36;;;;;;;1.05;0.82;;;;;;;12.38;67.75;98782.59;5073830;28;20024;-58
2022/10/02 03:32:04;;;;;;;2.38;0.80;;;;;;;12.37;67.45;98807.75;5072701;28;20036;-57
2022/10/02 03:34:32;;;;;;;1.75;0.90;;;;;;;12.40;66.81;98810.09;5072723;28;20107;-55
2022/10/02 03:36:57;;;;;;;1.02;0.77;;;;;;;12.38;67.06;98808.56;5073622;28;20083;-55
2022/10/02 03:39:22;;;;;;;1.95;0.60;;;;;;;12.36;66.91;98808.75;5073374;28;20068;-55
2022/10/02 03:41:48;;;;;;;2.22;0.55;;;;;;;12.34;66.66;98802.69;5073677;28;20036;-51
2022/10/02 03:44:14;;;;;;;2.55;0.90;;;;;;;12.31;67.09;98813.75;5072986;28;20292;-56
2022/10/02 03:46:39;;;;;;;0.70;0.63;;;;;;;12.24;66.63;98799.28;5073329;28;20044;-56
2022/10/02 03:49:04;;;;;;;1.80;0.60;;;;;;;12.32;66.36;98820.81;5073558;28;20044;-55
2022/10/02 03:51:30;;;;;;;1.85;0.57;;;;;;;12.33;65.85;98817.13;5073716;28;20037;-56
2022/10/02 03:53:55;;;;;;;0.57;0.50;;;;;;;12.30;65.78;98822.81;5073469;28;20657;-57
2022/10/02 03:56:43;;;;;;;1.38;0.40;;;;;;;12.32;65.26;98815.44;5072716;28;20447;-57
2022/10/02 03:59:17;;;;;;;0.60;0.40;;;;;;;12.26;65.38;98816.91;5073846;28;20039;-57
2022/10/02 04:01:47;;;;;;;0.73;0.40;;;;;;;12.20;65.64;98804.16;5073437;28;20142;-60
2022/10/02 04:04:20;;;;;;;1.15;0.40;;;;;;;12.18;65.51;98809.66;5073102;28;20028;-60
2022/10/02 04:07:01;;;;;;;0.40;0.40;;;;;;;12.23;65.85;98809.19;5073109;28;20056;-54
2022/10/02 04:09:35;;;;;;;0.40;0.30;;;;;;;12.11;65.67;98797.88;5072170;28;20039;-54
2022/10/02 04:12:13;;;;;;;1.65;0.40;;;;;;;12.32;65.55;98820.81;5073080;28;20024;-56
2022/10/02 04:14:50;;;;;;;0.40;0.40;;;;;;;12.34;65.35;98819.63;5073329;28;20058;-55
2022/10/02 04:17:25;;;;;;;1.20;0.47;;;;;;;12.36;65.03;98832.91;5072980;28;20116;-54
2022/10/02 04:19:56;;;;;;;3.03;0.47;;;;;;;12.33;63.96;98838.59;5072720;28;20024;-57
2022/10/02 04:22:36;;;;;;;2.20;0.30;;;;;;;12.30;63.76;98833.56;5072433;28;20060;-57
2022/10/02 04:25:10;;;;;;;0.90;0.30;;;;;;;12.23;63.12;98824.44;5072922;28;20402;-57
2022/10/02 04:27:42;;;;;;;0.30;0.28;;;;;;;12.20;63.21;98820.25;5073027;28;20450;-56
2022/10/02 04:30:13;;;;;;;0.45;0.30;;;;;;;12.20;62.27;98829.13;5052596;28;20327;-55
2022/10/02 04:32:39;;;;;;;0.50;0.30;;;;;;;12.19;62.17;98837.34;5053010;28;20155;-53
2022/10/02 04:35:16;;;;;;;2.15;0.20;;;;;;;12.27;62.07;98831.16;5052843;28;20467;-56
2022/10/02 04:37:50;;;;;;;1.20;0.30;;;;;;;12.28;61.79;98824.78;5052654;28;20471;-54
2022/10/02 04:40:34;;;;;;;1.67;0.10;;;;;;;12.35;61.86;98826.69;5059853;28;20077;-55
2022/10/02 04:43:05;;;;;;;1.15;0.10;;;;;;;12.32;61.36;98842.28;5072370;28;20043;-55
2022/10/02 04:45:49;;;;;;;1.55;0.20;;;;;;;12.42;61.75;98844.81;5072290;28;20064;-56
2022/10/02 04:48:51;;;;;;;2.85;0.20;;;;;;;12.41;61.18;98848.50;5072457;28;20043;-60
2022/10/02 04:51:29;;;;;;;0.82;0.20;;;;;;;12.42;60.47;98845.69;5071750;28;20125;-60
2022/10/02 04:54:22;;;;;;;5.88;0.40;;;;;;;12.56;60.72;98838.03;5068263;28;20036;-57
2022/10/02 04:57:20;;;;;;;0.20;0.20;;;;;;;12.41;59.85;98838.63;5052668;28;20033;-55
2022/10/02 04:59:48;;;;;;;2.22;0.32;;;;;;;12.42;60.13;98836.78;5034880;28;20052;-64
2022/10/02 05:02:30;;;;;;;1.70;0.20;;;;;;;12.51;59.98;98834.97;5072331;28;20053;-57
2022/10/02 05:05:04;;;;;;;0.17;0.10;;;;;;;12.52;59.68;98829.44;5072435;28;20054;-59
2022/10/02 05:07:38;;;;;;;0.20;0.17;;;;;;;12.65;59.57;98818.25;5072604;28;20115;-60
2022/10/02 05:10:30;;;;;;;0.73;0.10;;;;;;;12.81;59.64;98812.09;5072460;28;20033;-56
2022/10/02 05:13:17;;;;;;;0.80;0.20;;;;;;;12.97;59.40;98819.34;5072275;28;20029;-55
2022/10/02 05:16:04;;;;;;;0.65;0.15;;;;;;;13.02;59.15;98816.19;5072335;28;20371;-55
2022/10/02 05:18:47;;;;;;;0.30;0.20;;;;;;;12.90;58.81;98824.56;5052272;28;20064;-55
2022/10/02 05:21:19;;;;;;;1.05;0.28;;;;;;;12.86;58.97;98830.41;5052402;28;20033;-57
2022/10/02 05:23:54;;;;;;;1.30;0.30;;;;;;;12.80;59.11;98828.38;5052239;28;20099;-51
2022/10/02 05:26:32;;;;;;;2.53;0.30;;;;;;;12.72;59.15;98827.34;5061816;28;20450;-54
2022/10/02 05:29:03;;;;;;;1.60;0.20;;;;;;;12.61;59.32;98838.38;5072177;28;20459;-56
2022/10/02 05:32:00;;;;;;;0.82;0.22;;;;;;;12.53;58.87;98835.66;5072116;28;20127;-56
2022/10/02 05:34:47;;;;;;;0.30;0.20;;;;;;;12.41;59.83;98837.78;5048690;28;20389;-55
2022/10/02 05:37:29;;;;;;;0.30;0.05;;;;;;;12.30;60.15;98838.91;5072060;28;20335;-50
2022/10/02 05:40:17;;;;;;;0.40;0.40;;;;;;;12.25;60.79;98842.06;5072016;28;20032;-53
2022/10/02 05:43:00;;;;;;;0.32;0.20;;;;;;;12.17;61.05;98845.53;5071756;28;20036;-54
2022/10/02 05:45:45;;;;;;;0.30;0.20;;;;;;;12.23;61.11;98843.22;5071676;28;20039;-51
2022/10/02 05:48:26;;;;;;;1.55;0.20;;;;;;;12.23;60.88;98837.84;5072202;28;20028;-50
2022/10/02 05:50:58;;;;;;;0.63;0.30;;;;;;;12.16;61.26;98851.91;5071242;28;20044;-49
2022/10/02 05:53:43;;;;;;;0.90;0.30;;;;;;;12.23;61.41;98848.59;5071358;28;20559;-51
2022/10/02 05:56:14;;;;;;;0.32;0.30;;;;;;;12.18;61.53;98849.09;5071910;28;20021;-48
2022/10/02 05:59:01;;;;;;;2.85;0.40;;;;;;;12.23;61.23;98845.91;5071466;28;20051;-55
2022/10/02 06:01:32;;;;;;;1.65;0.30;;;;;;;12.12;61.52;98847.88;5070971;28;20029;-55
2022/10/02 06:04:26;;;;;;;2.05;0.40;;;;;;;12.19;62.19;98854.28;5075345;28;20127;-55
2022/10/02 06:06:56;;;;;;;0.40;0.30;;;;;;;12.14;61.80;98853.06;5074449;28;20037;-56
2022/10/02 06:09:39;;;;;;;1.13;0.40;;;;;;;12.17;62.30;98855.41;5075494;28;20024;-52
2022/10/02 06:12:19;;;;;;;0.85;0.43;;;;;;;12.11;62.47;98851.56;5074809;28;20052;-55
2022/10/02 06:15:06;;;;;;;0.35;0.30;;;;;;;12.24;62.31;98858.31;5074878;28;20066;-52
2022/10/02 06:17:49;;;;;;;1.33;0.30;;;;;;;12.22;61.68;98846.91;5075218;28;20025;-54
2022/10/02 06:20:32;;;;;;;0.40;0.22;;;;;;;12.21;61.66;98851.44;5075220;28;20047;-53
2022/10/02 06:23:09;;;;;;;0.30;0.30;;;;;;;12.15;61.64;98847.53;5075122;28;20039;-57
2022/10/02 06:25:42;;;;;;;1.00;0.28;;;;;;;12.10;61.78;98855.22;5075046;28;20087;-51
2022/10/02 06:28:30;;;;;;;0.30;0.30;;;;;;;12.12;61.64;98858.59;5074975;28;20032;-54
2022/10/02 06:31:09;;;;;;;3.22;0.30;;;;;;;12.15;61.63;98860.09;5054994;28;20036;-59
2022/10/02 06:33:34;;;;;;;2.03;0.40;;;;;;;12.12;61.66;98861.28;5054872;28;20033;-51
2022/10/02 06:36:03;;;;;;;4.05;0.55;;;;;;;12.12;61.62;98863.97;5055199;28;20472;-56
2022/10/02 06:38:34;;;;;;;4.15;0.30;;;;;;;12.10;61.78;98871.34;5070473;28;20070;-52
2022/10/02 06:41:11;;;;;;;2.45;0.32;;;;;;;12.14;61.73;98870.00;5074470;28;20036;-53
2022/10/02 06:43:52;;;;;;;3.92;0.50;;;;;;;12.21;61.66;98867.53;5075123;28;20036;-57
2022/10/02 06:46:23;;;;;;;6.20;0.40;;;;;;;12.22;62.00;98876.41;5075061;28;20043;-61
2022/10/02 06:49:38;;;;;;;3.28;0.50;;;;;;;12.31;62.09;98876.31;5073699;28;20358;-61
2022/10/02 06:52:15;;;;;;;3.40;0.75;;;;;;;12.19;61.68;98875.75;5041651;28;20056;-58
2022/10/02 06:54:53;;;;;;;7.60;0.70;;;;;;;12.25;61.53;98873.41;5074610;28;20055;-58
2022/10/02 06:57:34;;;;;;;2.10;0.50;;;;;;;12.22;61.07;98863.88;5074768;28;20447;-57
2022/10/02 07:00:13;;;;;;;1.92;0.60;;;;;;;12.45;60.95;98863.31;5074484;28;20032;-60
2022/10/02 07:03:21;;;;;;;2.35;0.70;;;;;;;12.85;60.77;98863.66;5074938;28;20418;-55
2022/10/02 07:05:53;;;;;;;1.40;0.63;;;;;;;13.32;58.02;98854.19;5053657;28;20051;-58
2022/10/02 07:08:45;;;;;;;1.25;0.60;;;;;;;13.96;57.00;98855.41;5072985;28;20036;-59
2022/10/02 07:11:19;;;;;;;0.40;0.30;;;;;;;14.64;54.57;98854.09;5073810;28;20098;-61
2022/10/02 07:14:06;;;;;;;0.98;0.30;;;;;;;15.35;52.04;98855.94;5072889;28;20462;-60
2022/10/02 07:16:45;;;;;;;0.95;0.40;;;;;;;16.11;51.13;98854.31;5072416;28;20071;-61
2022/10/02 07:19:29;;;;;;;6.35;0.70;;;;;;;16.58;49.69;98855.03;5073012;28;20047;-58
2022/10/02 07:22:09;;;;;;;1.85;0.60;;;;;;;17.08;48.33;98857.13;5071393;28;20086;-57
2022/10/02 07:24:57;;;;;;;1.85;0.35;;;;;;;17.94;47.44;98853.59;5073892;28;20123;-56
2022/10/02 07:27:31;;;;;;;3.22;0.47;;;;;;;18.63;43.74;98855.75;5073298;28;20042;-58
2022/10/02 07:30:04;;;;;;;1.65;0.50;;;;;;;20.02;40.79;98857.44;5071644;28;20036;-59
2022/10/02 07:32:35;;;;;;;1.90;0.50;;;;;;;20.65;40.05;98850.63;5072454;28;20040;-57
2022/10/02 07:35:26;;;;;;;2.20;0.38;;;;;;;20.71;39.22;98848.94;5072620;28;20036;-60
2022/10/02 07:38:18;;;;;;;1.67;0.50;;;;;;;20.63;40.95;98852.72;5070630;28;20125;-61
2022/10/02 07:41:07;;;;;;;3.75;0.40;;;;;;;20.27;42.18;98854.88;5071143;28;20567;-60
2022/10/02 07:43:52;;;;;;;1.45;0.40;;;;;;;19.41;42.24;98867.34;5057285;28;20541;-57
2022/10/02 07:46:36;;;;;;;3.50;0.50;;;;;;;18.50;43.84;98870.06;5072166;28;20024;-58
2022/10/02 07:49:32;;;;;;;0.98;0.45;;;;;;;17.62;46.24;98871.22;5073077;28;20331;-62
2022/10/02 07:52:06;;;;;;;1.23;0.70;;;;;;;16.85;47.58;98860.78;5053884;28;20069;-60
2022/10/02 07:55:16;;;;;;;3.08;0.82;;;;;;;16.50;48.91;98853.25;5053221;28;20104;-60
2022/10/02 07:58:07;;;;;;;2.10;0.68;;;;;;;15.97;49.55;98847.06;5043110;28;20053;-58
2022/10/02 08:00:40;;;;;;;4.47;0.68;;;;;;;15.52;49.57;98853.13;5073104;28;20040;-58
2022/10/02 08:03:12;;;;;;;6.90;0.60;;;;;;;15.49;49.80;98857.00;5072690;28;20368;-56
2022/10/02 08:05:44;;;;;;;1.20;0.55;;;;;;;15.42;50.37;98849.81;5072965;28;20435;-57
2022/10/02 08:08:30;;;;;;;1.77;0.40;;;;;;;15.59;50.30;98858.66;5072898;28;20104;-56
2022/10/02 08:11:01;;;;;;;;;;;;;;;16.27;49.62;98861.41;5072041;28;20435;-62
2022/10/02 08:13:31;;;;;;;1.85;0.50;;;;;;;16.38;47.35;98857.44;5072741;28;19916;-61
2022/10/02 08:15:57;;;;;;;1.40;0.50;;;;;;;16.81;46.27;98864.03;5072018;28;20457;-56
2022/10/02 08:18:31;;;;;;;4.03;0.60;;;;;;;17.40;45.65;98867.69;5072407;28;20455;-55
2022/10/02 08:20:59;;;;;;;1.40;0.80;;;;;;;17.88;44.18;98862.53;5072721;28;20024;-61
2022/10/02 08:23:38;;;;;;;1.80;0.70;;;;;;;18.51;42.88;98874.47;5073008;28;20036;-57
2022/10/02 08:26:20;;;;;;;1.90;0.60;;;;;;;19.02;41.46;98861.59;5072669;28;20032;-59
2022/10/02 08:29:23;;;;;;;6.22;0.90;;;;;;;19.54;41.84;98863.81;5072873;28;20101;-59
2022/10/02 08:31:50;;;;;;;1.48;0.55;;;;;;;19.67;40.31;98868.44;5052048;28;20037;-59
2022/10/02 08:34:18;;;;;;;1.27;0.60;;;;;;;19.51;40.48;98859.63;5052796;28;20112;-61
2022/10/02 08:36:49;;;;;;;5.90;0.65;;;;;;;19.21;40.78;98863.53;5052676;28;20029;-61
2022/10/02 08:39:24;;;;;;;1.00;0.60;;;;;;;18.82;41.56;98872.34;5067508;28;20060;-58
2022/10/02 08:42:03;;;;;;;4.78;0.90;;;;;;;18.50;43.23;98873.59;5071966;28;20037;-59
2022/10/02 08:44:56;;;;;;;1.25;0.43;;;;;;;17.85;43.83;98875.59;5072312;28;20036;-58
2022/10/02 08:47:46;;;;;;;1.80;0.60;;;;;;;17.46;44.92;98878.56;5066868;28;20056;-61
2022/10/02 08:50:28;;;;;;;1.85;0.47;;;;;;;17.05;45.76;98885.38;5072236;28;20072;-60
2022/10/02 08:53:09;;;;;;;1.23;0.60;;;;;;;16.87;46.69;98879.50;5071619;28;20401;-58
2022/10/02 08:56:02;;;;;;;2.10;0.57;;;;;;;16.76;47.08;98868.16;5072311;28;20063;-56
2022/10/02 08:58:30;;;;;;;0.75;0.60;;;;;;;16.67;46.60;98874.69;5071526;28;20075;-60
2022/10/02 09:01:18;;;;;;;1.20;0.55;;;;;;;16.59;46.74;98872.06;5072297;28;20101;-55
2022/10/02 09:04:02;;;;;;;2.30;0.60;;;;;;;16.62;46.91;98877.09;5072190;28;20382;-59
2022/10/02 09:07:08;;;;;;;1.50;0.50;;;;;;;16.46;48.01;98881.66;5072664;28;20435;-57
2022/10/02 09:10:28;;;;;;;2.15;0.88;;;;;;;16.40;48.30;98874.31;5038509;28;20036;-56
2022/10/02 09:13:12;;;;;;;3.40;0.85;;;;;;;16.25;47.55;98871.56;5030101;28;20111;-58
2022/10/02 09:15:45;;;;;;;3.38;0.90;;;;;;;16.30;47.72;98873.72;5072218;28;20516;-58
2022/10/02 09:18:45;;;;;;;3.80;0.63;;;;;;;16.23;48.19;98883.59;5071508;28;20039;-58
2022/10/02 09:21:18;;;;;;;3.28;0.90;;;;;;;16.07;48.25;98880.88;5072019;28;20043;-55
2022/10/02 09:24:05;;;;;;;3.50;0.77;;;;;;;16.03;48.66;98879.53;5070891;28;20488;-60
2022/10/02 09:27:08;;;;;;;1.42;0.73;;;;;;;16.18;48.90;98887.69;5072364;28;20447;-59
2022/10/02 09:29:49;;;;;;;2.95;0.63;;;;;;;16.06;48.60;98876.50;5071864;28;20432;-57
2022/10/02 09:33:03;;;;;;;7.43;0.90;;;;;;;16.15;48.76;98866.44;5071805;28;20044;-60
2022/10/02 09:35:54;;;;;;;1.85;0.90;;;;;;;16.20;48.88;98874.00;5052243;28;20063;-59
2022/10/02 09:38:32;;;;;;;8.20;1.10;;;;;;;16.28;48.96;98881.19;5054065;28;20073;-60
2022/10/02 09:41:00;;;;;;;3.08;0.95;;;;;;;16.19;48.11;98877.72;5056079;28;20111;-59
2022/10/02 09:43:44;;;;;;;5.38;1.70;;;;;;;16.15;48.82;98881.81;5062812;28;20040;-57
2022/10/02 09:46:21;;;;;;;3.08;1.17;;;;;;;16.03;48.39;98878.72;5076040;28;20094;-59
2022/10/02 09:49:30;;;;;;;3.40;1.27;;;;;;;16.13;48.36;98891.97;5075540;28;20055;-62
2022/10/02 09:52:31;;;;;;;1.92;1.20;;;;;;;16.07;48.61;98897.06;5055875;28;20546;-59
2022/10/02 09:55:26;;;;;;;1.40;1.00;;;;;;;15.92;49.34;98885.38;5075680;28;20044;-61
2022/10/02 09:58:12;;;;;;;2.25;1.40;;;;;;;15.79;50.07;98892.22;5074365;28;20032;-61
2022/10/02 10:01:10;;;;;;;2.10;1.30;;;;;;;15.53;50.41;98868.28;5069992;28;20115;-61
2022/10/02 10:03:47;;;;;;;2.08;1.30;;;;;;;15.50;50.86;98893.75;5067769;28;20040;-62
2022/10/02 10:06:16;;;;;;;3.38;1.30;;;;;;;15.27;51.31;98901.84;5075236;28;20037;-60
2022/10/02 10:09:03;;;;;;;4.32;1.15;;;;;;;15.22;51.63;98893.44;5075403;28;20385;-62
2022/10/02 10:11:49;;;;;;;1.02;0.77;;;;;;;15.27;51.74;98887.50;5076032;28;20032;-58
2022/10/02 10:14:23;;;;;;;1.70;1.10;;;;;;;15.30;51.24;98896.09;5074828;28;20115;-58
2022/10/02 10:17:07;;;;;;;1.40;0.90;;;;;;;15.26;51.73;98889.38;5075272;28;20025;-60
2022/10/02 10:19:52;;;;;;;2.95;1.05;;;;;;;15.24;51.84;98885.16;5074265;28;20051;-64
2022/10/02 10:22:45;;;;;;;2.72;1.10;;;;;;;15.14;52.01;98880.00;5074896;28;20137;-57
2022/10/02 10:25:33;;;;;;;4.10;1.10;;;;;;;15.10;52.12;98871.44;5075262;28;20067;-58
2022/10/02 10:28:32;;;;;;;4.22;1.02;;;;;;;15.19;52.01;98878.44;5075258;28;20036;-54
2022/10/02 10:31:35;;;;;;;1.50;0.90;;;;;;;15.27;51.85;98879.41;5072741;28;20041;-58
2022/10/02 10:34:19;;;;;;;1.95;1.00;;;;;;;15.29;51.13;98883.63;5075094;28;20534;-59
2022/10/02 10:40:13;;;;;;;1.83;1.10;;;;;;;15.67;50.56;98885.56;5064323;28;20024;-59
2022/10/02 10:43:06;;;;;;;1.40;0.80;;;;;;;15.73;50.60;98882.13;5072068;28;20359;-58
2022/10/02 10:46:02;;;;;;;3.50;0.95;;;;;;;15.73;50.46;98873.22;5074799;28;20481;-62
2022/10/02 10:48:41;;;;;;;1.20;1.05;;;;;;;15.68;50.34;98881.00;5073291;28;20091;-60
2022/10/02 10:51:28;;;;;;;1.58;1.10;;;;;;;15.69;50.96;98874.59;5074568;28;20375;-61
2022/10/02 10:54:15;;;;;;;2.13;1.17;;;;;;;15.68;50.49;98878.31;5074950;28;20470;-61
2022/10/02 10:56:52;;;;;;;2.53;1.33;;;;;;;15.74;50.58;98878.41;5074568;28;20040;-62
2022/10/02 10:59:32;;;;;;;1.75;1.00;;;;;;;15.71;49.64;98875.25;5074046;28;20378;-59
2022/10/02 11:02:13;;;;;;;1.88;1.10;;;;;;;15.92;50.09;98886.25;5074547;28;20079;-61
2022/10/02 11:04:57;;;;;;;3.50;1.10;;;;;;;16.08;49.62;98881.69;5073547;28;20024;-61
2022/10/02 11:08:05;;;;;;;0.82;0.82;;;;;;;16.14;49.08;98877.44;5072165;28;20401;-60
2022/10/02 11:10:50;;;;;;;3.75;1.10;;;;;;;16.07;49.53;98882.72;5063798;28;20033;-61
2022/10/02 11:13:19;;;;;;;1.27;1.05;;;;;;;15.92;49.59;98875.44;5042171;28;20462;-60
2022/10/02 11:16:21;;;;;;;5.20;1.20;;;;;;;16.00;49.90;98876.38;5073209;28;20105;-63
2022/10/02 11:19:08;;;;;;;4.30;1.30;;;;;;;15.92;49.39;98882.69;5072752;28;20025;-60
2022/10/02 11:22:11;;;;;;;1.63;1.10;;;;;;;16.07;49.40;98877.31;5071611;28;20050;-64
2022/10/02 11:24:49;;;;;;;3.13;1.38;;;;;;;16.07;49.49;98878.19;5072160;28;20028;-63
2022/10/02 11:27:56;;;;;;;1.85;1.02;;;;;;;16.12;49.44;98866.81;5072868;28;20031;-63
2022/10/02 11:30:28;;;;;;;1.27;0.98;;;;;;;16.09;48.98;98867.19;5073070;28;20442;-64
2022/10/02 11:33:22;;;;;;;0.95;0.82;;;;;;;16.07;49.57;98867.38;5071661;28;20077;-63
2022/10/02 11:35:57;;;;;;;2.35;1.13;;;;;;;16.00;49.76;98862.88;5070043;28;20033;-64
2022/10/02 11:38:50;;;;;;;1.27;1.10;;;;;;;15.96;49.40;98851.59;5072364;28;20032;-62
2022/10/02 11:41:19;;;;;;;1.38;1.08;;;;;;;15.93;49.03;98851.97;5072018;28;20358;-61
2022/10/02 11:44:04;;;;;;;2.05;1.20;;;;;;;16.07;49.15;98858.44;5073022;28;20032;-63
2022/10/02 11:46:50;;;;;;;1.13;0.95;;;;;;;16.15;48.77;98857.50;5073524;28;20107;-62
2022/10/02 11:49:26;;;;;;;;;;;;;;;16.46;48.93;98856.50;5072755;28;20044;-62
2022/10/02 11:52:07;;;;;;;2.15;0.98;;;;;;;15.99;48.37;98861.22;5073161;28;19926;-62
2022/10/02 11:54:36;;;;;;;2.33;0.90;;;;;;;15.62;49.55;98851.00;5073783;28;20113;-62
2022/10/02 11:57:07;;;;;;;3.90;1.00;;;;;;;15.30;49.85;98846.69;5072119;28;20028;-62
2022/10/02 11:59:49;;;;;;;2.58;0.90;;;;;;;15.26;50.26;98856.16;5070070;28;20040;-61
2022/10/02 12:02:34;;;;;;;2.75;0.90;;;;;;;15.20;50.31;98857.72;5073246;28;20041;-61
2022/10/02 12:05:24;;;;;;;3.83;1.10;;;;;;;15.24;50.44;98853.66;5073142;28;20032;-59
2022/10/02 12:08:09;;;;;;;1.50;1.20;;;;;;;15.18;50.62;98857.91;5071909;28;20033;-64
2022/10/02 12:10:47;;;;;;;2.70;1.02;;;;;;;15.20;50.36;98855.03;5072829;28;20451;-62
2022/10/02 12:13:36;;;;;;;1.55;1.15;;;;;;;15.23;50.78;98848.44;5073110;28;20106;-60
2022/10/02 12:16:26;;;;;;;4.70;1.10;;;;;;;15.09;50.66;98815.00;5073128;28;20146;-61
2022/10/02 12:19:33;;;;;;;2.25;1.00;;;;;;;15.24;51.00;98840.19;5072725;28;20059;-60
2022/10/02 12:28:30;;;;;;;5.10;1.15;;;;;;;14.89;51.04;98835.16;5072557;28;20407;-62
2022/10/02 12:31:05;;;;;;;3.67;1.25;;;;;;;14.80;51.05;98840.75;5073080;28;20032;-60
2022/10/02 12:33:39;;;;;;;7.97;1.20;;;;;;;14.72;51.47;98838.94;5071542;28;20040;-60
2022/10/02 12:36:13;;;;;;;8.60;1.20;;;;;;;14.57;51.55;98833.41;5071868;28;20041;-60
2022/10/02 12:39:11;;;;;;;1.15;0.95;;;;;;;14.52;52.08;98831.22;5072565;28;20029;-61
2022/10/02 12:41:45;;;;;;;3.90;1.15;;;;;;;14.38;52.62;98829.28;5072691;28;20032;-61
2022/10/02 12:44:46;;;;;;;4.70;1.27;;;;;;;14.20;52.92;98833.00;5072405;28;20043;-63
2022/10/02 12:47:39;;;;;;;4.07;1.23;;;;;;;14.12;53.38;98817.72;5050059;28;20049;-59
2022/10/02 12:50:46;;;;;;;1.70;1.20;;;;;;;13.99;53.93;98820.13;5072496;28;20064;-60